sensor_id;sensor_type;location;lat;lon;timestamp;P1;durP1;ratioP1;P2;durP2;ratioP2
75793;SDS011;64418;47.536;19.074;2022-12-10T00:00:45;10.43;;;6.93;;
75793;SDS011;64418;47.536;19.074;2022-12-10T00:03:31;9.77;;;6.50;;
75793;SDS011;64418;47.536;19.074;2022-12-10T00:06:17;10.63;;;6.28;;
75793;SDS011;64418;47.536;19.074;2022-12-10T00:09:07;8.88;;;5.72;;
75793;SDS011;64418;47.536;19.074;2022-12-10T00:11:55;9.68;;;6.30;;
75793;SDS011;64418;47.536;19.074;2022-12-10T00:14:40;10.85;;;6.22;;
75793;SDS011;64418;47.536;19.074;2022-12-10T00:17:26;9.03;;;6.43;;
75793;SDS011;64418;47.536;19.074;2022-12-10T00:20:12;10.55;;;6.15;;
75793;SDS011;64418;47.536;19.074;2022-12-10T00:22:58;10.02;;;6.35;;
75793;SDS011;64418;47.536;19.074;2022-12-10T00:25:45;8.57;;;5.75;;
75793;SDS011;64418;47.536;19.074;2022-12-10T00:28:31;9.73;;;6.40;;
75793;SDS011;64418;47.536;19.074;2022-12-10T00:31:17;9.90;;;5.60;;
75793;SDS011;64418;47.536;19.074;2022-12-10T00:34:06;10.57;;;6.30;;
75793;SDS011;64418;47.536;19.074;2022-12-10T00:36:53;8.95;;;5.82;;
75793;SDS011;64418;47.536;19.074;2022-12-10T00:39:38;9.10;;;5.78;;
75793;SDS011;64418;47.536;19.074;2022-12-10T00:42:25;9.23;;;6.25;;
75793;SDS011;64418;47.536;19.074;2022-12-10T00:45:11;9.87;;;6.00;;
75793;SDS011;64418;47.536;19.074;2022-12-10T00:47:57;8.90;;;5.60;;
75793;SDS011;64418;47.536;19.074;2022-12-10T00:50:43;9.90;;;5.93;;
75793;SDS011;64418;47.536;19.074;2022-12-10T00:53:29;11.20;;;6.37;;
75793;SDS011;64418;47.536;19.074;2022-12-10T00:56:17;8.63;;;5.30;;
75793;SDS011;64418;47.536;19.074;2022-12-10T00:59:06;7.67;;;5.70;;
75793;SDS011;64418;47.536;19.074;2022-12-10T01:01:52;9.13;;;6.22;;
75793;SDS011;64418;47.536;19.074;2022-12-10T01:04:37;9.65;;;5.75;;
75793;SDS011;64418;47.536;19.074;2022-12-10T01:07:23;9.60;;;6.18;;
75793;SDS011;64418;47.536;19.074;2022-12-10T01:10:09;8.52;;;5.97;;
75793;SDS011;64418;47.536;19.074;2022-12-10T01:12:55;11.53;;;6.80;;
75793;SDS011;64418;47.536;19.074;2022-12-10T01:15:42;9.52;;;5.47;;
75793;SDS011;64418;47.536;19.074;2022-12-10T01:18:28;11.88;;;6.47;;
75793;SDS011;64418;47.536;19.074;2022-12-10T01:21:15;9.80;;;6.53;;
75793;SDS011;64418;47.536;19.074;2022-12-10T01:24:02;12.27;;;6.93;;
75793;SDS011;64418;47.536;19.074;2022-12-10T01:26:49;10.43;;;6.40;;
75793;SDS011;64418;47.536;19.074;2022-12-10T01:29:35;12.13;;;6.82;;
75793;SDS011;64418;47.536;19.074;2022-12-10T01:32:23;11.15;;;6.87;;
75793;SDS011;64418;47.536;19.074;2022-12-10T01:35:09;10.82;;;6.00;;
75793;SDS011;64418;47.536;19.074;2022-12-10T01:37:55;9.48;;;5.90;;
75793;SDS011;64418;47.536;19.074;2022-12-10T01:40:41;10.17;;;6.27;;
75793;SDS011;64418;47.536;19.074;2022-12-10T01:43:27;9.93;;;6.32;;
75793;SDS011;64418;47.536;19.074;2022-12-10T01:46:14;11.38;;;6.28;;
75793;SDS011;64418;47.536;19.074;2022-12-10T01:49:03;11.50;;;6.57;;
75793;SDS011;64418;47.536;19.074;2022-12-10T01:51:51;9.15;;;6.00;;
75793;SDS011;64418;47.536;19.074;2022-12-10T01:54:39;10.13;;;6.50;;
75793;SDS011;64418;47.536;19.074;2022-12-10T01:57:27;10.52;;;6.32;;
75793;SDS011;64418;47.536;19.074;2022-12-10T02:00:14;10.88;;;7.00;;
75793;SDS011;64418;47.536;19.074;2022-12-10T02:03:00;9.35;;;6.20;;
75793;SDS011;64418;47.536;19.074;2022-12-10T02:05:56;10.30;;;7.00;;
75793;SDS011;64418;47.536;19.074;2022-12-10T02:08:52;10.27;;;6.40;;
75793;SDS011;64418;47.536;19.074;2022-12-10T02:11:48;10.50;;;6.25;;
75793;SDS011;64418;47.536;19.074;2022-12-10T02:14:47;12.40;;;7.03;;
75793;SDS011;64418;47.536;19.074;2022-12-10T02:17:41;11.93;;;7.03;;
75793;SDS011;64418;47.536;19.074;2022-12-10T02:20:32;11.18;;;6.75;;
75793;SDS011;64418;47.536;19.074;2022-12-10T02:23:24;11.83;;;6.60;;
75793;SDS011;64418;47.536;19.074;2022-12-10T02:26:13;9.50;;;5.85;;
75793;SDS011;64418;47.536;19.074;2022-12-10T02:29:07;8.52;;;5.53;;
75793;SDS011;64418;47.536;19.074;2022-12-10T02:32:00;6.30;;;4.65;;
75793;SDS011;64418;47.536;19.074;2022-12-10T02:34:50;7.43;;;4.25;;
75793;SDS011;64418;47.536;19.074;2022-12-10T02:37:39;5.63;;;4.20;;
75793;SDS011;64418;47.536;19.074;2022-12-10T02:40:31;6.65;;;3.95;;
75793;SDS011;64418;47.536;19.074;2022-12-10T02:43:18;7.90;;;4.25;;
75793;SDS011;64418;47.536;19.074;2022-12-10T02:46:08;6.57;;;4.65;;
75793;SDS011;64418;47.536;19.074;2022-12-10T02:48:57;9.25;;;4.87;;
75793;SDS011;64418;47.536;19.074;2022-12-10T02:51:45;7.43;;;4.27;;
75793;SDS011;64418;47.536;19.074;2022-12-10T02:54:33;6.72;;;4.22;;
75793;SDS011;64418;47.536;19.074;2022-12-10T02:57:27;7.62;;;4.90;;
75793;SDS011;64418;47.536;19.074;2022-12-10T03:00:18;9.43;;;5.30;;
75793;SDS011;64418;47.536;19.074;2022-12-10T03:03:11;8.88;;;5.20;;
75793;SDS011;64418;47.536;19.074;2022-12-10T03:06:15;10.13;;;5.17;;
75793;SDS011;64418;47.536;19.074;2022-12-10T03:09:05;8.57;;;5.00;;
75793;SDS011;64418;47.536;19.074;2022-12-10T03:11:56;10.27;;;5.68;;
75793;SDS011;64418;47.536;19.074;2022-12-10T03:14:47;11.18;;;6.15;;
75793;SDS011;64418;47.536;19.074;2022-12-10T03:17:33;12.07;;;6.40;;
75793;SDS011;64418;47.536;19.074;2022-12-10T03:20:22;11.10;;;5.63;;
75793;SDS011;64418;47.536;19.074;2022-12-10T03:23:10;10.10;;;5.65;;
75793;SDS011;64418;47.536;19.074;2022-12-10T03:26:03;11.32;;;6.20;;
75793;SDS011;64418;47.536;19.074;2022-12-10T03:28:52;10.88;;;5.90;;
75793;SDS011;64418;47.536;19.074;2022-12-10T03:31:42;11.38;;;5.37;;
75793;SDS011;64418;47.536;19.074;2022-12-10T03:34:30;10.03;;;5.20;;
75793;SDS011;64418;47.536;19.074;2022-12-10T03:37:18;11.20;;;5.45;;
75793;SDS011;64418;47.536;19.074;2022-12-10T03:40:07;12.27;;;6.50;;
75793;SDS011;64418;47.536;19.074;2022-12-10T03:42:56;12.65;;;4.93;;
75793;SDS011;64418;47.536;19.074;2022-12-10T03:45:41;11.90;;;5.25;;
75793;SDS011;64418;47.536;19.074;2022-12-10T03:48:27;11.47;;;5.27;;
75793;SDS011;64418;47.536;19.074;2022-12-10T03:51:13;13.15;;;5.78;;
75793;SDS011;64418;47.536;19.074;2022-12-10T03:54:00;12.90;;;5.43;;
75793;SDS011;64418;47.536;19.074;2022-12-10T03:56:46;11.55;;;5.35;;
75793;SDS011;64418;47.536;19.074;2022-12-10T03:59:31;12.00;;;5.22;;
75793;SDS011;64418;47.536;19.074;2022-12-10T04:02:17;10.00;;;4.80;;
75793;SDS011;64418;47.536;19.074;2022-12-10T04:05:03;11.07;;;5.05;;
75793;SDS011;64418;47.536;19.074;2022-12-10T04:07:49;14.27;;;5.78;;
75793;SDS011;64418;47.536;19.074;2022-12-10T04:10:37;12.23;;;5.10;;
75793;SDS011;64418;47.536;19.074;2022-12-10T04:13:23;13.27;;;5.57;;
75793;SDS011;64418;47.536;19.074;2022-12-10T04:16:09;13.27;;;6.13;;
75793;SDS011;64418;47.536;19.074;2022-12-10T04:18:56;15.85;;;6.32;;
75793;SDS011;64418;47.536;19.074;2022-12-10T04:21:43;15.77;;;6.20;;
75793;SDS011;64418;47.536;19.074;2022-12-10T04:24:30;19.08;;;6.57;;
75793;SDS011;64418;47.536;19.074;2022-12-10T04:27:20;15.40;;;6.68;;
75793;SDS011;64418;47.536;19.074;2022-12-10T04:30:08;17.47;;;7.13;;
75793;SDS011;64418;47.536;19.074;2022-12-10T04:32:56;16.15;;;6.55;;
75793;SDS011;64418;47.536;19.074;2022-12-10T04:35:44;16.48;;;6.70;;
75793;SDS011;64418;47.536;19.074;2022-12-10T04:38:30;18.48;;;6.55;;
75793;SDS011;64418;47.536;19.074;2022-12-10T04:41:15;18.85;;;7.50;;
75793;SDS011;64418;47.536;19.074;2022-12-10T04:44:03;17.57;;;6.87;;
75793;SDS011;64418;47.536;19.074;2022-12-10T04:46:49;17.60;;;7.75;;
75793;SDS011;64418;47.536;19.074;2022-12-10T04:49:35;16.27;;;7.45;;
75793;SDS011;64418;47.536;19.074;2022-12-10T04:52:22;17.00;;;7.32;;
75793;SDS011;64418;47.536;19.074;2022-12-10T04:55:08;16.90;;;7.37;;
75793;SDS011;64418;47.536;19.074;2022-12-10T04:57:54;15.83;;;6.63;;
75793;SDS011;64418;47.536;19.074;2022-12-10T05:00:41;16.33;;;7.60;;
75793;SDS011;64418;47.536;19.074;2022-12-10T05:03:27;17.02;;;7.68;;
75793;SDS011;64418;47.536;19.074;2022-12-10T05:06:14;18.30;;;7.78;;
75793;SDS011;64418;47.536;19.074;2022-12-10T05:09:01;18.58;;;8.77;;
75793;SDS011;64418;47.536;19.074;2022-12-10T05:11:48;17.63;;;8.67;;
75793;SDS011;64418;47.536;19.074;2022-12-10T05:14:33;20.58;;;8.95;;
75793;SDS011;64418;47.536;19.074;2022-12-10T05:17:21;19.50;;;8.80;;
75793;SDS011;64418;47.536;19.074;2022-12-10T05:20:07;21.08;;;9.43;;
75793;SDS011;64418;47.536;19.074;2022-12-10T05:22:53;19.77;;;8.95;;
75793;SDS011;64418;47.536;19.074;2022-12-10T05:25:39;19.47;;;8.97;;
75793;SDS011;64418;47.536;19.074;2022-12-10T05:28:26;19.67;;;9.07;;
75793;SDS011;64418;47.536;19.074;2022-12-10T05:31:17;22.13;;;9.98;;
75793;SDS011;64418;47.536;19.074;2022-12-10T05:34:06;20.10;;;9.70;;
75793;SDS011;64418;47.536;19.074;2022-12-10T05:36:52;20.02;;;9.93;;
75793;SDS011;64418;47.536;19.074;2022-12-10T05:39:37;21.47;;;10.20;;
75793;SDS011;64418;47.536;19.074;2022-12-10T05:42:24;21.62;;;10.13;;
75793;SDS011;64418;47.536;19.074;2022-12-10T05:45:10;21.35;;;10.35;;
75793;SDS011;64418;47.536;19.074;2022-12-10T05:47:55;18.27;;;8.90;;
75793;SDS011;64418;47.536;19.074;2022-12-10T05:50:43;23.73;;;10.38;;
75793;SDS011;64418;47.536;19.074;2022-12-10T05:53:28;19.93;;;9.63;;
75793;SDS011;64418;47.536;19.074;2022-12-10T05:56:16;18.75;;;10.43;;
75793;SDS011;64418;47.536;19.074;2022-12-10T05:59:06;21.23;;;10.02;;
75793;SDS011;64418;47.536;19.074;2022-12-10T06:01:52;17.55;;;9.15;;
75793;SDS011;64418;47.536;19.074;2022-12-10T06:04:37;18.27;;;9.55;;
75793;SDS011;64418;47.536;19.074;2022-12-10T06:07:24;19.83;;;9.80;;
75793;SDS011;64418;47.536;19.074;2022-12-10T06:10:11;19.20;;;9.35;;
75793;SDS011;64418;47.536;19.074;2022-12-10T06:12:57;21.42;;;10.52;;
75793;SDS011;64418;47.536;19.074;2022-12-10T06:15:44;18.70;;;9.25;;
75793;SDS011;64418;47.536;19.074;2022-12-10T06:18:32;16.92;;;9.07;;
75793;SDS011;64418;47.536;19.074;2022-12-10T06:21:19;19.27;;;10.77;;
75793;SDS011;64418;47.536;19.074;2022-12-10T06:24:09;17.83;;;9.05;;
75793;SDS011;64418;47.536;19.074;2022-12-10T06:26:56;17.25;;;9.20;;
75793;SDS011;64418;47.536;19.074;2022-12-10T06:29:43;18.65;;;9.30;;
75793;SDS011;64418;47.536;19.074;2022-12-10T06:32:30;14.77;;;8.20;;
75793;SDS011;64418;47.536;19.074;2022-12-10T06:35:16;16.57;;;8.20;;
75793;SDS011;64418;47.536;19.074;2022-12-10T06:38:02;17.23;;;9.25;;
75793;SDS011;64418;47.536;19.074;2022-12-10T06:40:50;19.55;;;10.05;;
75793;SDS011;64418;47.536;19.074;2022-12-10T06:43:37;17.05;;;8.88;;
75793;SDS011;64418;47.536;19.074;2022-12-10T06:46:24;16.98;;;8.73;;
75793;SDS011;64418;47.536;19.074;2022-12-10T06:49:11;20.97;;;10.27;;
75793;SDS011;64418;47.536;19.074;2022-12-10T06:51:57;21.35;;;10.63;;
75793;SDS011;64418;47.536;19.074;2022-12-10T06:54:43;20.62;;;10.43;;
75793;SDS011;64418;47.536;19.074;2022-12-10T06:57:31;17.00;;;8.65;;
75793;SDS011;64418;47.536;19.074;2022-12-10T07:00:17;21.50;;;9.30;;
75793;SDS011;64418;47.536;19.074;2022-12-10T07:03:03;18.43;;;10.00;;
75793;SDS011;64418;47.536;19.074;2022-12-10T07:05:49;20.23;;;9.52;;
75793;SDS011;64418;47.536;19.074;2022-12-10T07:08:36;19.98;;;9.80;;
75793;SDS011;64418;47.536;19.074;2022-12-10T07:11:23;50.67;;;16.80;;
75793;SDS011;64418;47.536;19.074;2022-12-10T07:14:13;20.33;;;10.98;;
75793;SDS011;64418;47.536;19.074;2022-12-10T07:17:04;20.00;;;10.17;;
75793;SDS011;64418;47.536;19.074;2022-12-10T07:19:51;21.55;;;11.00;;
75793;SDS011;64418;47.536;19.074;2022-12-10T07:22:37;20.00;;;11.18;;
75793;SDS011;64418;47.536;19.074;2022-12-10T07:25:23;23.50;;;11.45;;
75793;SDS011;64418;47.536;19.074;2022-12-10T07:28:09;24.27;;;11.95;;
75793;SDS011;64418;47.536;19.074;2022-12-10T07:31:01;21.63;;;11.43;;
75793;SDS011;64418;47.536;19.074;2022-12-10T07:33:48;24.25;;;11.85;;
75793;SDS011;64418;47.536;19.074;2022-12-10T07:36:35;21.00;;;11.48;;
75793;SDS011;64418;47.536;19.074;2022-12-10T07:39:31;22.52;;;11.77;;
75793;SDS011;64418;47.536;19.074;2022-12-10T07:42:34;21.12;;;11.77;;
75793;SDS011;64418;47.536;19.074;2022-12-10T07:45:24;24.67;;;12.37;;
75793;SDS011;64418;47.536;19.074;2022-12-10T07:48:15;24.77;;;12.35;;
75793;SDS011;64418;47.536;19.074;2022-12-10T07:51:01;21.55;;;11.73;;
75793;SDS011;64418;47.536;19.074;2022-12-10T07:53:51;22.42;;;12.37;;
75793;SDS011;64418;47.536;19.074;2022-12-10T07:56:37;24.75;;;12.88;;
75793;SDS011;64418;47.536;19.074;2022-12-10T07:59:23;23.00;;;12.30;;
75793;SDS011;64418;47.536;19.074;2022-12-10T08:02:10;22.73;;;11.10;;
75793;SDS011;64418;47.536;19.074;2022-12-10T08:04:59;21.80;;;11.75;;
75793;SDS011;64418;47.536;19.074;2022-12-10T08:07:45;25.05;;;13.02;;
75793;SDS011;64418;47.536;19.074;2022-12-10T08:10:32;20.27;;;11.30;;
75793;SDS011;64418;47.536;19.074;2022-12-10T08:13:18;23.10;;;11.40;;
75793;SDS011;64418;47.536;19.074;2022-12-10T08:16:06;23.52;;;11.55;;
75793;SDS011;64418;47.536;19.074;2022-12-10T08:18:56;22.75;;;10.65;;
75793;SDS011;64418;47.536;19.074;2022-12-10T08:21:45;21.70;;;11.93;;
75793;SDS011;64418;47.536;19.074;2022-12-10T08:24:31;23.42;;;10.73;;
75793;SDS011;64418;47.536;19.074;2022-12-10T08:27:17;19.97;;;9.60;;
75793;SDS011;64418;47.536;19.074;2022-12-10T08:30:03;20.80;;;10.05;;
75793;SDS011;64418;47.536;19.074;2022-12-10T08:32:51;17.52;;;9.38;;
75793;SDS011;64418;47.536;19.074;2022-12-10T08:35:37;18.15;;;9.57;;
75793;SDS011;64418;47.536;19.074;2022-12-10T08:38:25;18.58;;;9.93;;
75793;SDS011;64418;47.536;19.074;2022-12-10T08:41:12;17.50;;;9.67;;
75793;SDS011;64418;47.536;19.074;2022-12-10T08:43:59;17.52;;;9.65;;
75793;SDS011;64418;47.536;19.074;2022-12-10T08:46:46;17.67;;;9.73;;
75793;SDS011;64418;47.536;19.074;2022-12-10T08:49:33;28.52;;;12.77;;
75793;SDS011;64418;47.536;19.074;2022-12-10T08:52:20;20.35;;;9.55;;
75793;SDS011;64418;47.536;19.074;2022-12-10T08:55:08;18.90;;;10.13;;
75793;SDS011;64418;47.536;19.074;2022-12-10T08:57:54;18.50;;;9.73;;
75793;SDS011;64418;47.536;19.074;2022-12-10T09:00:41;17.17;;;9.18;;
75793;SDS011;64418;47.536;19.074;2022-12-10T09:03:26;19.35;;;9.70;;
75793;SDS011;64418;47.536;19.074;2022-12-10T09:06:19;17.37;;;10.07;;
75793;SDS011;64418;47.536;19.074;2022-12-10T09:09:06;18.27;;;9.63;;
75793;SDS011;64418;47.536;19.074;2022-12-10T09:11:54;17.70;;;9.73;;
75793;SDS011;64418;47.536;19.074;2022-12-10T09:14:40;17.98;;;9.98;;
75793;SDS011;64418;47.536;19.074;2022-12-10T09:17:26;17.45;;;10.20;;
75793;SDS011;64418;47.536;19.074;2022-12-10T09:20:14;21.50;;;10.93;;
75793;SDS011;64418;47.536;19.074;2022-12-10T09:23:00;18.43;;;9.70;;
75793;SDS011;64418;47.536;19.074;2022-12-10T09:25:46;18.90;;;10.23;;
75793;SDS011;64418;47.536;19.074;2022-12-10T09:28:34;20.70;;;9.55;;
75793;SDS011;64418;47.536;19.074;2022-12-10T09:31:20;19.12;;;10.40;;
75793;SDS011;64418;47.536;19.074;2022-12-10T09:34:06;20.48;;;10.10;;
75793;SDS011;64418;47.536;19.074;2022-12-10T09:36:52;18.83;;;9.73;;
75793;SDS011;64418;47.536;19.074;2022-12-10T09:39:37;19.55;;;9.75;;
75793;SDS011;64418;47.536;19.074;2022-12-10T09:42:26;22.42;;;11.55;;
75793;SDS011;64418;47.536;19.074;2022-12-10T09:45:23;21.60;;;11.00;;
75793;SDS011;64418;47.536;19.074;2022-12-10T09:48:17;19.20;;;9.82;;
75793;SDS011;64418;47.536;19.074;2022-12-10T09:51:08;20.00;;;9.20;;
75793;SDS011;64418;47.536;19.074;2022-12-10T09:54:03;21.05;;;9.85;;
75793;SDS011;64418;47.536;19.074;2022-12-10T09:56:57;18.70;;;9.73;;
75793;SDS011;64418;47.536;19.074;2022-12-10T09:59:46;20.55;;;9.50;;
75793;SDS011;64418;47.536;19.074;2022-12-10T10:02:36;20.33;;;9.82;;
75793;SDS011;64418;47.536;19.074;2022-12-10T10:05:24;18.77;;;8.90;;
75793;SDS011;64418;47.536;19.074;2022-12-10T10:08:13;19.08;;;9.13;;
75793;SDS011;64418;47.536;19.074;2022-12-10T10:11:04;18.30;;;10.10;;
75793;SDS011;64418;47.536;19.074;2022-12-10T10:13:52;22.10;;;9.73;;
75793;SDS011;64418;47.536;19.074;2022-12-10T10:16:42;18.45;;;9.38;;
75793;SDS011;64418;47.536;19.074;2022-12-10T10:19:34;22.80;;;11.00;;
75793;SDS011;64418;47.536;19.074;2022-12-10T10:22:21;24.23;;;12.15;;
75793;SDS011;64418;47.536;19.074;2022-12-10T10:25:08;25.62;;;12.50;;
75793;SDS011;64418;47.536;19.074;2022-12-10T10:27:59;25.08;;;12.55;;
75793;SDS011;64418;47.536;19.074;2022-12-10T10:30:46;27.48;;;13.10;;
75793;SDS011;64418;47.536;19.074;2022-12-10T10:33:32;27.27;;;12.63;;
75793;SDS011;64418;47.536;19.074;2022-12-10T10:36:36;26.15;;;12.90;;
75793;SDS011;64418;47.536;19.074;2022-12-10T10:39:25;29.00;;;14.45;;
75793;SDS011;64418;47.536;19.074;2022-12-10T10:42:14;25.73;;;13.07;;
75793;SDS011;64418;47.536;19.074;2022-12-10T10:48:28;27.23;;;13.67;;
75793;SDS011;64418;47.536;19.074;2022-12-10T10:51:17;31.40;;;15.68;;
75793;SDS011;64418;47.536;19.074;2022-12-10T10:54:07;31.67;;;15.25;;
75793;SDS011;64418;47.536;19.074;2022-12-10T10:56:52;30.65;;;15.65;;
75793;SDS011;64418;47.536;19.074;2022-12-10T10:59:39;31.50;;;15.15;;
75793;SDS011;64418;47.536;19.074;2022-12-10T11:02:26;31.37;;;14.83;;
75793;SDS011;64418;47.536;19.074;2022-12-10T11:05:16;33.40;;;15.25;;
75793;SDS011;64418;47.536;19.074;2022-12-10T11:08:06;30.67;;;15.07;;
75793;SDS011;64418;47.536;19.074;2022-12-10T11:11:03;32.60;;;14.93;;
75793;SDS011;64418;47.536;19.074;2022-12-10T11:13:50;29.60;;;14.95;;
75793;SDS011;64418;47.536;19.074;2022-12-10T11:16:36;28.70;;;15.00;;
75793;SDS011;64418;47.536;19.074;2022-12-10T11:19:23;30.98;;;14.90;;
75793;SDS011;64418;47.536;19.074;2022-12-10T11:22:16;31.75;;;14.07;;
75793;SDS011;64418;47.536;19.074;2022-12-10T11:25:10;29.92;;;14.18;;
75793;SDS011;64418;47.536;19.074;2022-12-10T11:28:00;30.50;;;15.15;;
75793;SDS011;64418;47.536;19.074;2022-12-10T11:30:53;28.37;;;14.30;;
75793;SDS011;64418;47.536;19.074;2022-12-10T11:33:46;29.00;;;14.32;;
75793;SDS011;64418;47.536;19.074;2022-12-10T11:36:38;28.50;;;14.75;;
75793;SDS011;64418;47.536;19.074;2022-12-10T11:39:40;31.70;;;15.63;;
75793;SDS011;64418;47.536;19.074;2022-12-10T11:42:40;34.42;;;16.35;;
75793;SDS011;64418;47.536;19.074;2022-12-10T11:45:37;34.50;;;16.07;;
75793;SDS011;64418;47.536;19.074;2022-12-10T11:48:36;34.03;;;15.77;;
75793;SDS011;64418;47.536;19.074;2022-12-10T11:51:38;39.05;;;16.58;;
75793;SDS011;64418;47.536;19.074;2022-12-10T11:54:34;38.28;;;17.52;;
75793;SDS011;64418;47.536;19.074;2022-12-10T11:57:35;37.65;;;17.02;;
75793;SDS011;64418;47.536;19.074;2022-12-10T12:00:30;32.40;;;15.60;;
75793;SDS011;64418;47.536;19.074;2022-12-10T12:03:35;43.55;;;17.00;;
75793;SDS011;64418;47.536;19.074;2022-12-10T12:06:40;39.17;;;18.20;;
75793;SDS011;64418;47.536;19.074;2022-12-10T12:09:52;39.00;;;17.42;;
75793;SDS011;64418;47.536;19.074;2022-12-10T12:12:47;42.70;;;18.02;;
75793;SDS011;64418;47.536;19.074;2022-12-10T12:15:44;39.20;;;18.93;;
75793;SDS011;64418;47.536;19.074;2022-12-10T12:18:39;36.13;;;17.00;;
75793;SDS011;64418;47.536;19.074;2022-12-10T12:21:31;36.40;;;18.20;;
75793;SDS011;64418;47.536;19.074;2022-12-10T12:24:19;39.17;;;16.62;;
75793;SDS011;64418;47.536;19.074;2022-12-10T12:27:12;40.95;;;17.98;;
75793;SDS011;64418;47.536;19.074;2022-12-10T12:30:06;32.43;;;15.90;;
75793;SDS011;64418;47.536;19.074;2022-12-10T12:33:02;32.00;;;15.65;;
75793;SDS011;64418;47.536;19.074;2022-12-10T12:35:55;33.30;;;16.33;;
75793;SDS011;64418;47.536;19.074;2022-12-10T12:38:46;36.45;;;16.58;;
75793;SDS011;64418;47.536;19.074;2022-12-10T12:41:41;33.35;;;15.80;;
75793;SDS011;64418;47.536;19.074;2022-12-10T12:44:34;33.97;;;16.57;;
75793;SDS011;64418;47.536;19.074;2022-12-10T12:47:38;32.33;;;15.02;;
75793;SDS011;64418;47.536;19.074;2022-12-10T12:50:32;35.05;;;16.90;;
75793;SDS011;64418;47.536;19.074;2022-12-10T12:53:26;34.45;;;16.83;;
75793;SDS011;64418;47.536;19.074;2022-12-10T12:56:20;39.72;;;17.60;;
75793;SDS011;64418;47.536;19.074;2022-12-10T12:59:16;32.93;;;16.33;;
75793;SDS011;64418;47.536;19.074;2022-12-10T13:02:16;37.25;;;16.92;;
75793;SDS011;64418;47.536;19.074;2022-12-10T13:05:12;34.65;;;16.70;;
75793;SDS011;64418;47.536;19.074;2022-12-10T13:11:18;39.67;;;18.60;;
75793;SDS011;64418;47.536;19.074;2022-12-10T13:14:15;35.83;;;17.13;;
75793;SDS011;64418;47.536;19.074;2022-12-10T13:17:27;34.63;;;17.42;;
75793;SDS011;64418;47.536;19.074;2022-12-10T13:20:30;34.40;;;17.42;;
75793;SDS011;64418;47.536;19.074;2022-12-10T13:23:30;35.45;;;16.90;;
75793;SDS011;64418;47.536;19.074;2022-12-10T13:26:24;35.17;;;17.00;;
75793;SDS011;64418;47.536;19.074;2022-12-10T13:29:13;35.43;;;16.97;;
75793;SDS011;64418;47.536;19.074;2022-12-10T13:32:14;32.08;;;15.45;;
75793;SDS011;64418;47.536;19.074;2022-12-10T13:35:16;36.40;;;17.48;;
75793;SDS011;64418;47.536;19.074;2022-12-10T13:38:17;33.28;;;16.60;;
75793;SDS011;64418;47.536;19.074;2022-12-10T13:41:07;36.47;;;17.27;;
75793;SDS011;64418;47.536;19.074;2022-12-10T13:43:54;31.47;;;15.77;;
75793;SDS011;64418;47.536;19.074;2022-12-10T13:46:53;30.77;;;15.75;;
75793;SDS011;64418;47.536;19.074;2022-12-10T13:49:44;32.90;;;16.27;;
75793;SDS011;64418;47.536;19.074;2022-12-10T13:52:38;34.63;;;16.52;;
75793;SDS011;64418;47.536;19.074;2022-12-10T13:55:36;30.23;;;16.25;;
75793;SDS011;64418;47.536;19.074;2022-12-10T13:58:32;33.00;;;15.37;;
75793;SDS011;64418;47.536;19.074;2022-12-10T14:01:29;35.38;;;16.85;;
75793;SDS011;64418;47.536;19.074;2022-12-10T14:04:30;31.55;;;16.35;;
75793;SDS011;64418;47.536;19.074;2022-12-10T14:07:30;34.00;;;16.87;;
75793;SDS011;64418;47.536;19.074;2022-12-10T14:10:17;38.67;;;17.02;;
75793;SDS011;64418;47.536;19.074;2022-12-10T14:13:10;31.87;;;16.07;;
75793;SDS011;64418;47.536;19.074;2022-12-10T14:16:00;34.30;;;16.85;;
75793;SDS011;64418;47.536;19.074;2022-12-10T14:18:49;33.63;;;16.37;;
75793;SDS011;64418;47.536;19.074;2022-12-10T14:21:40;31.87;;;15.45;;
75793;SDS011;64418;47.536;19.074;2022-12-10T14:24:29;31.80;;;15.65;;
75793;SDS011;64418;47.536;19.074;2022-12-10T14:27:17;37.27;;;16.80;;
75793;SDS011;64418;47.536;19.074;2022-12-10T14:30:05;36.92;;;18.20;;
75793;SDS011;64418;47.536;19.074;2022-12-10T14:33:02;31.27;;;16.08;;
75793;SDS011;64418;47.536;19.074;2022-12-10T14:35:48;35.67;;;17.10;;
75793;SDS011;64418;47.536;19.074;2022-12-10T14:38:35;27.60;;;15.20;;
75793;SDS011;64418;47.536;19.074;2022-12-10T14:41:22;30.33;;;15.60;;
75793;SDS011;64418;47.536;19.074;2022-12-10T14:44:11;35.78;;;16.83;;
75793;SDS011;64418;47.536;19.074;2022-12-10T14:47:04;35.88;;;17.40;;
75793;SDS011;64418;47.536;19.074;2022-12-10T14:49:53;32.35;;;16.60;;
75793;SDS011;64418;47.536;19.074;2022-12-10T14:52:41;33.90;;;17.65;;
75793;SDS011;64418;47.536;19.074;2022-12-10T14:55:28;31.67;;;15.67;;
75793;SDS011;64418;47.536;19.074;2022-12-10T14:58:15;31.02;;;15.50;;
75793;SDS011;64418;47.536;19.074;2022-12-10T15:01:04;33.92;;;16.73;;
75793;SDS011;64418;47.536;19.074;2022-12-10T15:03:51;30.10;;;15.40;;
75793;SDS011;64418;47.536;19.074;2022-12-10T15:06:39;29.70;;;15.57;;
75793;SDS011;64418;47.536;19.074;2022-12-10T15:09:25;30.87;;;15.20;;
75793;SDS011;64418;47.536;19.074;2022-12-10T15:15:07;26.85;;;14.48;;
75793;SDS011;64418;47.536;19.074;2022-12-10T15:17:59;29.73;;;15.63;;
75793;SDS011;64418;47.536;19.074;2022-12-10T15:20:48;30.52;;;15.52;;
75793;SDS011;64418;47.536;19.074;2022-12-10T15:23:38;30.93;;;14.67;;
75793;SDS011;64418;47.536;19.074;2022-12-10T15:26:28;31.62;;;14.80;;
75793;SDS011;64418;47.536;19.074;2022-12-10T15:29:32;34.72;;;16.02;;
75793;SDS011;64418;47.536;19.074;2022-12-10T15:32:21;32.47;;;15.85;;
75793;SDS011;64418;47.536;19.074;2022-12-10T15:35:10;32.45;;;16.17;;
75793;SDS011;64418;47.536;19.074;2022-12-10T15:37:59;32.13;;;15.60;;
75793;SDS011;64418;47.536;19.074;2022-12-10T15:40:46;30.42;;;14.52;;
75793;SDS011;64418;47.536;19.074;2022-12-10T15:43:33;31.40;;;16.42;;
75793;SDS011;64418;47.536;19.074;2022-12-10T15:46:18;30.70;;;15.35;;
75793;SDS011;64418;47.536;19.074;2022-12-10T15:49:05;30.65;;;15.65;;
75793;SDS011;64418;47.536;19.074;2022-12-10T15:51:51;30.10;;;15.10;;
75793;SDS011;64418;47.536;19.074;2022-12-10T15:54:40;31.98;;;16.58;;
75793;SDS011;64418;47.536;19.074;2022-12-10T15:57:30;30.10;;;15.27;;
75793;SDS011;64418;47.536;19.074;2022-12-10T16:00:18;28.87;;;15.30;;
75793;SDS011;64418;47.536;19.074;2022-12-10T16:03:05;29.63;;;15.23;;
75793;SDS011;64418;47.536;19.074;2022-12-10T16:05:54;31.20;;;14.73;;
75793;SDS011;64418;47.536;19.074;2022-12-10T16:08:38;31.10;;;14.10;;
75793;SDS011;64418;47.536;19.074;2022-12-10T16:11:24;32.47;;;14.02;;
75793;SDS011;64418;47.536;19.074;2022-12-10T16:14:11;30.88;;;15.32;;
75793;SDS011;64418;47.536;19.074;2022-12-10T16:16:58;29.42;;;14.35;;
75793;SDS011;64418;47.536;19.074;2022-12-10T16:19:45;28.83;;;15.40;;
75793;SDS011;64418;47.536;19.074;2022-12-10T16:22:31;31.67;;;14.50;;
75793;SDS011;64418;47.536;19.074;2022-12-10T16:25:17;30.37;;;14.68;;
75793;SDS011;64418;47.536;19.074;2022-12-10T16:28:03;27.87;;;13.68;;
75793;SDS011;64418;47.536;19.074;2022-12-10T16:30:51;35.92;;;15.10;;
75793;SDS011;64418;47.536;19.074;2022-12-10T16:33:38;27.90;;;14.63;;